createdAt,value
2022-11-03T00:02:36.798Z,90.84
2022-11-03T00:07:36.779Z,90.84
2022-11-03T00:12:36.878Z,91.09
2022-11-03T00:17:37.014Z,91.68
2022-11-03T00:22:37.016Z,91.68
2022-11-03T00:27:37.056Z,92.35
2022-11-03T00:32:36.711Z,90.47
2022-11-03T00:37:36.944Z,90.47
2022-11-03T00:42:36.780Z,92.84
2022-11-03T00:47:36.945Z,92.11
2022-11-03T00:57:36.764Z,92.14
2022-11-03T01:02:37.123Z,92.14
2022-11-03T01:07:36.802Z,91.17
2022-11-03T01:12:37.007Z,90.57
2022-11-03T01:17:36.837Z,89.95
2022-11-03T01:22:37.012Z,90.01
2022-11-03T01:27:37.015Z,89.45
2022-11-03T01:32:37.231Z,89.45
2022-11-03T01:37:36.761Z,89.42
2022-11-03T01:42:36.771Z,88.39
2022-11-03T01:47:37.076Z,88.39
2022-11-03T01:52:36.869Z,89.08
2022-11-03T01:57:37.055Z,89.08
2022-11-03T02:02:36.780Z,89.28
2022-11-03T02:07:36.873Z,88.34
2022-11-03T02:12:36.829Z,88.05
2022-11-03T02:17:36.782Z,87.56
2022-11-03T02:22:36.786Z,87.21
2022-11-03T02:27:36.864Z,87.97
2022-11-03T02:32:37.128Z,87.30
2022-11-03T02:37:37.029Z,87.30
2022-11-03T02:42:37.071Z,86.73
2022-11-03T02:47:36.804Z,87.99
2022-11-03T02:52:37.020Z,87.99
2022-11-03T02:57:36.849Z,91.32
2022-11-03T03:02:39.339Z,91.56
2022-11-03T03:07:37.204Z,89.98
2022-11-03T03:12:36.815Z,89.25
2022-11-03T03:17:36.836Z,90.63
2022-11-03T03:22:36.948Z,90.63
2022-11-03T03:27:36.803Z,90.11
2022-11-03T03:32:36.933Z,90.11
2022-11-03T03:37:37.041Z,90.78
2022-11-03T03:42:36.839Z,89.85
2022-11-03T03:47:37.003Z,89.85
2022-11-03T03:52:37.167Z,89.29
2022-11-03T04:02:37.229Z,88.58
2022-11-03T04:07:42.404Z,88.91
2022-11-03T04:12:37.031Z,89.60
2022-11-03T04:17:37.038Z,89.60
2022-11-03T04:22:37.060Z,91.45
2022-11-03T04:27:37.221Z,91.68
2022-11-03T04:32:37.011Z,92.41
2022-11-03T04:37:36.971Z,92.10
2022-11-03T04:42:37.001Z,91.82
2022-11-03T04:47:37.158Z,90.81
2022-11-03T04:52:36.955Z,91.86
2022-11-03T04:57:37.129Z,91.86
2022-11-03T05:02:36.860Z,90.60
2022-11-03T05:07:36.846Z,91.91
2022-11-03T05:12:36.880Z,92.21
2022-11-03T05:17:36.899Z,91.90
2022-11-03T05:22:36.902Z,91.90
2022-11-03T05:27:37.048Z,91.99
2022-11-03T05:32:36.857Z,91.99
2022-11-03T05:37:36.998Z,91.49
2022-11-03T05:42:37.222Z,94.13
2022-11-03T05:47:36.887Z,94.13
2022-11-03T05:52:36.884Z,95.31
2022-11-03T05:57:36.958Z,94.09
2022-11-03T06:02:36.867Z,94.52
2022-11-03T06:07:36.899Z,94.52
2022-11-03T06:12:37.039Z,93.71
2022-11-03T06:17:37.148Z,93.30
2022-11-03T06:22:36.996Z,92.79
2022-11-03T06:27:36.904Z,94.18
2022-11-03T06:32:36.984Z,92.82
2022-11-03T06:37:36.885Z,92.82
2022-11-03T06:42:36.980Z,93.53
2022-11-03T06:47:37.427Z,93.53
2022-11-03T06:52:36.908Z,92.73
2022-11-03T06:57:37.087Z,93.42
2022-11-03T07:02:37.330Z,93.42
2022-11-03T07:07:37.006Z,93.27
2022-11-03T07:12:37.171Z,93.10
2022-11-03T07:17:36.929Z,92.85
2022-11-03T07:22:37.171Z,92.65
2022-11-03T07:27:36.921Z,92.65
2022-11-03T07:32:37.113Z,91.39
2022-11-03T07:37:36.938Z,91.39
2022-11-03T07:42:36.951Z,92.07
2022-11-03T07:47:36.901Z,92.20
2022-11-03T07:52:37.128Z,92.63
2022-11-03T07:57:36.956Z,92.47
2022-11-03T08:02:37.092Z,92.47
2022-11-03T08:07:36.926Z,92.16
2022-11-03T08:12:36.983Z,93.13
2022-11-03T08:17:37.163Z,93.30
2022-11-03T08:22:36.990Z,92.72
2022-11-03T08:27:37.143Z,92.72
2022-11-03T08:32:37.246Z,92.89
2022-11-03T08:37:37.071Z,94.20
2022-11-03T08:42:36.966Z,94.17
2022-11-03T08:47:36.940Z,94.96
2022-11-03T08:52:36.951Z,95.32
2022-11-03T08:57:37.263Z,95.55
2022-11-03T09:02:37.115Z,96.41
2022-11-03T09:12:37.276Z,96.83
2022-11-03T09:17:39.463Z,96.56
2022-11-03T09:22:36.993Z,96.80
2022-11-03T09:27:37.253Z,96.13
2022-11-03T09:37:37.177Z,94.82
2022-11-03T09:42:37.033Z,95.13
2022-11-03T09:47:37.178Z,95.13
2022-11-03T09:52:37.026Z,94.94
2022-11-03T09:57:37.166Z,94.94
2022-11-03T10:02:37.091Z,95.53
2022-11-03T10:07:37.008Z,95.81
2022-11-03T10:12:37.271Z,95.87
2022-11-03T10:17:37.212Z,96.36
2022-11-03T10:22:40.883Z,96.36
2022-11-03T10:27:37.082Z,96.97
2022-11-03T10:32:36.976Z,96.97
2022-11-03T10:37:37.030Z,97.22
2022-11-03T10:42:37.191Z,97.41
2022-11-03T10:47:37.320Z,97.53
2022-11-03T10:52:37.168Z,97.80
2022-11-03T10:57:37.365Z,97.06
2022-11-03T11:02:37.076Z,97.06
2022-11-03T11:07:37.266Z,96.59
2022-11-03T11:12:37.107Z,96.43
2022-11-03T11:17:37.239Z,96.43
2022-11-03T11:22:37.503Z,97.01
2022-11-03T11:27:37.049Z,97.01
2022-11-03T11:32:37.328Z,96.96
2022-11-03T11:37:37.037Z,96.80
2022-11-03T11:42:38.800Z,97.54
2022-11-03T11:47:37.046Z,97.09
2022-11-03T11:52:37.008Z,96.71
2022-11-03T11:57:37.044Z,96.71
2022-11-03T12:02:37.424Z,96.82
2022-11-03T12:07:37.091Z,97.17
2022-11-03T12:12:37.232Z,97.33
2022-11-03T12:17:37.349Z,97.27
2022-11-03T12:22:37.054Z,97.51
2022-11-03T12:27:37.173Z,98.24
2022-11-03T12:32:37.178Z,98.24
2022-11-03T12:37:37.287Z,98.54
2022-11-03T12:42:37.097Z,98.88
2022-11-03T12:47:37.278Z,98.64
2022-11-03T12:52:37.054Z,98.32
2022-11-03T12:57:37.251Z,98.99
2022-11-03T13:02:37.596Z,98.99
2022-11-03T13:07:37.219Z,99.14
2022-11-03T13:12:37.363Z,99.14
2022-11-03T13:17:59.406Z,98.51
2022-11-03T13:22:37.078Z,98.31
2022-11-03T13:37:37.475Z,97.79
2022-11-03T13:42:37.261Z,97.79
2022-11-03T13:48:15.581Z,98.09
2022-11-03T13:52:37.086Z,97.50
2022-11-03T14:07:37.334Z,97.59
2022-11-03T14:12:37.086Z,97.12
2022-11-03T14:17:37.315Z,97.12
2022-11-03T14:22:37.132Z,96.66
2022-11-03T14:27:37.142Z,96.66
2022-11-03T14:32:37.319Z,96.44
2022-11-03T14:37:37.193Z,96.51
2022-11-03T14:42:37.996Z,95.85
2022-11-03T14:47:37.099Z,96.11
2022-11-03T14:52:37.336Z,95.76
2022-11-03T14:57:37.201Z,96.90
2022-11-03T15:02:37.208Z,96.90
2022-11-03T15:07:37.175Z,98.31
2022-11-03T15:12:37.125Z,98.43
2022-11-03T15:17:37.480Z,98.43
2022-11-03T15:27:37.292Z,100.00
2022-11-03T15:32:37.262Z,100.00
2022-11-03T15:37:37.825Z,100.00
2022-11-03T15:42:37.188Z,100.00
2022-11-03T15:47:37.365Z,100.00
2022-11-03T15:52:37.172Z,100.00
2022-11-03T15:57:37.355Z,100.00
2022-11-03T16:02:41.752Z,100.00
2022-11-03T16:07:37.339Z,100.00
2022-11-03T16:12:37.305Z,100.00
2022-11-03T16:17:41.347Z,100.00
2022-11-03T16:22:37.531Z,100.00
2022-11-03T16:27:37.208Z,100.00
2022-11-03T16:32:37.852Z,100.00
2022-11-03T16:37:37.276Z,100.00
2022-11-03T16:42:37.830Z,100.00
2022-11-03T16:47:37.186Z,100.00
2022-11-03T16:52:37.304Z,100.00
2022-11-03T16:57:37.612Z,100.00
2022-11-03T17:07:37.436Z,100.00
2022-11-03T17:12:37.168Z,100.00
2022-11-03T17:17:37.152Z,100.00
2022-11-03T17:22:37.322Z,100.00
2022-11-03T17:27:37.377Z,100.00
2022-11-03T17:32:37.187Z,100.00
2022-11-03T17:37:37.936Z,100.00
2022-11-03T17:42:37.495Z,100.00
2022-11-03T17:47:37.310Z,100.00
2022-11-03T17:52:38.001Z,100.00
2022-11-03T17:57:37.401Z,100.00
2022-11-03T18:02:37.705Z,100.00
2022-11-03T18:07:37.261Z,100.00
2022-11-03T18:12:37.245Z,100.00
2022-11-03T18:17:38.838Z,100.00
2022-11-03T18:22:37.326Z,100.00
2022-11-03T18:27:37.671Z,100.00
2022-11-03T18:32:37.554Z,100.00
2022-11-03T18:37:37.287Z,100.00
2022-11-03T18:42:37.551Z,100.00
2022-11-03T18:47:37.425Z,100.00
2022-11-03T18:52:37.891Z,100.00
2022-11-03T18:57:37.781Z,100.00
2022-11-03T19:02:37.535Z,100.00
2022-11-03T19:07:37.540Z,100.00
2022-11-03T19:12:39.160Z,100.00
2022-11-03T19:17:37.598Z,100.00
2022-11-03T19:22:37.723Z,100.00
2022-11-03T19:27:37.972Z,100.00
2022-11-03T19:32:37.666Z,100.00
2022-11-03T19:37:37.441Z,100.00
2022-11-03T19:42:37.671Z,100.00
2022-11-03T19:47:37.470Z,100.00
2022-11-03T19:52:37.512Z,99.61
2022-11-03T19:57:38.041Z,99.47
2022-11-03T20:02:37.704Z,99.74
2022-11-03T20:07:37.691Z,99.00
2022-11-03T20:12:37.508Z,99.00
2022-11-03T20:17:39.019Z,98.84
2022-11-03T20:27:37.933Z,98.67
2022-11-03T20:32:37.574Z,98.75
2022-11-03T20:37:37.504Z,98.82
2022-11-03T20:42:37.797Z,99.01
2022-11-03T20:47:37.544Z,99.01
2022-11-03T20:52:37.563Z,98.48
2022-11-03T20:57:37.584Z,98.48
2022-11-03T21:07:37.914Z,97.25
2022-11-03T21:12:37.384Z,96.86
2022-11-03T21:17:37.624Z,96.86
2022-11-03T21:22:51.884Z,96.51
2022-11-03T21:27:39.286Z,96.66
2022-11-03T21:32:37.598Z,96.33
2022-11-03T21:37:37.619Z,96.21
2022-11-03T21:42:37.342Z,96.13
2022-11-03T21:47:37.291Z,96.13
2022-11-03T21:52:37.369Z,95.82
2022-11-03T21:57:37.495Z,95.99
2022-11-03T22:02:37.617Z,95.58
2022-11-03T22:12:37.807Z,95.74
2022-11-03T22:17:37.433Z,96.11
2022-11-03T22:22:37.288Z,96.55
2022-11-03T22:27:37.319Z,96.38
2022-11-03T22:32:37.295Z,96.38
2022-11-03T22:42:37.500Z,97.12
2022-11-03T22:47:37.305Z,97.23
2022-11-03T22:52:37.488Z,97.23
2022-11-03T23:02:37.414Z,97.94
2022-11-03T23:07:41.234Z,98.04
2022-11-03T23:17:37.768Z,98.74
2022-11-03T23:22:37.401Z,98.71
2022-11-03T23:27:37.334Z,98.77
2022-11-03T23:32:37.676Z,98.97
2022-11-03T23:42:37.347Z,99.26
2022-11-03T23:47:37.475Z,98.64
2022-11-03T23:52:37.597Z,98.64
2022-11-03T23:57:37.351Z,99.11
